createdAt,value
2023-03-26T00:04:10.366Z,100342.41
2023-03-26T00:09:08.655Z,100356.72
2023-03-26T00:14:06.090Z,100364.47
2023-03-26T00:19:03.437Z,100349.84
2023-03-26T00:24:03.726Z,100353.56
2023-03-26T00:29:02.742Z,100343.19
2023-03-26T00:34:03.047Z,100331.72
2023-03-26T00:39:00.661Z,100356.31
2023-03-26T00:43:59.126Z,100329.28
2023-03-26T00:48:58.053Z,100322.53
2023-03-26T00:53:56.458Z,100275.88
2023-03-26T00:58:53.284Z,100390.22
2023-03-26T01:04:08.436Z,100408.09
2023-03-26T01:09:15.679Z,100337.03
2023-03-26T01:14:18.179Z,100385.84
2023-03-26T01:19:25.626Z,100429.09
2023-03-26T01:24:23.398Z,100421.97
2023-03-26T01:29:30.944Z,100416.25
2023-03-26T01:34:37.244Z,100443.09
2023-03-26T01:39:41.793Z,100450.56
2023-03-26T01:44:45.823Z,100390.31
2023-03-26T01:49:42.707Z,100452.66
2023-03-26T01:54:40.735Z,100407.31
2023-03-26T02:00:04.002Z,100438.22
2023-03-26T02:05:16.798Z,100390.78
2023-03-26T02:10:17.109Z,100403.91
2023-03-26T02:15:16.567Z,100397.06
2023-03-26T02:20:18.201Z,100396.22
2023-03-26T02:25:17.878Z,100384.53
2023-03-26T02:30:18.611Z,100419.13
2023-03-26T02:35:18.436Z,100379.72
2023-03-26T02:40:18.051Z,100417.72
2023-03-26T02:45:16.244Z,100428.25
2023-03-26T02:50:53.640Z,100436.44
2023-03-26T02:56:17.090Z,100436.66
2023-03-26T03:01:30.206Z,100432.09
2023-03-26T03:06:30.319Z,100437.47
2023-03-26T03:11:29.874Z,100422.44
2023-03-26T03:16:27.027Z,100422.50
2023-03-26T03:21:26.440Z,100445.75
2023-03-26T03:26:27.032Z,100458.16
2023-03-26T03:31:26.261Z,100453.31
2023-03-26T03:36:27.514Z,100433.28
2023-03-26T03:41:31.919Z,100428.47
2023-03-26T03:46:32.739Z,100449.19
2023-03-26T03:51:30.045Z,100448.59
2023-03-26T03:56:30.003Z,100454.22
2023-03-26T04:01:47.857Z,100428.78
2023-03-26T04:06:54.448Z,100420.94
2023-03-26T04:11:52.971Z,100454.31
2023-03-26T04:17:26.161Z,100440.19
2023-03-26T04:22:35.838Z,100400.00
2023-03-26T04:27:36.777Z,100406.38
2023-03-26T04:32:49.279Z,100428.22
2023-03-26T04:37:47.205Z,100437.59
2023-03-26T04:42:48.139Z,100455.78
2023-03-26T04:48:14.864Z,100452.53
2023-03-26T04:53:15.989Z,100472.16
2023-03-26T04:58:33.528Z,100462.94
2023-03-26T05:03:32.346Z,100465.03
2023-03-26T05:08:34.529Z,100476.28
2023-03-26T05:13:31.642Z,100472.13
2023-03-26T05:18:34.448Z,100463.75
2023-03-26T05:23:32.646Z,100474.84
2023-03-26T05:28:45.779Z,100496.47
2023-03-26T05:33:50.417Z,100507.53
2023-03-26T05:38:48.897Z,100521.78
2023-03-26T05:44:05.848Z,100533.19
2023-03-26T05:49:03.802Z,100540.84
2023-03-26T05:54:04.721Z,100515.31
2023-03-26T05:59:28.149Z,100525.84
2023-03-26T06:04:45.218Z,100502.72
2023-03-26T06:10:18.550Z,100504.88
2023-03-26T06:15:16.635Z,100539.38
2023-03-26T06:20:37.039Z,100543.19
2023-03-26T06:25:41.112Z,100521.59
2023-03-26T06:31:04.509Z,100531.31
2023-03-26T06:36:07.318Z,100547.78
2023-03-26T06:41:07.728Z,100496.22
2023-03-26T06:46:25.427Z,100517.25
2023-03-26T06:52:02.361Z,100519.16
2023-03-26T06:57:31.441Z,100454.38
2023-03-26T07:03:04.124Z,100546.78
2023-03-26T07:08:26.408Z,100483.97
2023-03-26T07:13:41.819Z,100530.66
2023-03-26T07:18:57.402Z,100591.94
2023-03-26T07:24:01.500Z,100585.66
2023-03-26T07:29:26.306Z,100581.97
2023-03-26T07:34:49.258Z,100570.31
2023-03-26T07:40:05.337Z,100582.22
2023-03-26T07:45:42.560Z,100570.66
2023-03-26T07:51:00.440Z,100588.31
2023-03-26T07:56:20.248Z,100590.06
2023-03-26T08:01:45.533Z,100590.22
2023-03-26T08:06:53.760Z,100597.97
2023-03-26T08:12:29.937Z,100568.28
2023-03-26T08:17:34.431Z,100532.91
2023-03-26T08:22:36.111Z,100559.91
2023-03-26T08:27:39.439Z,100593.72
2023-03-26T08:34:39.514Z,100624.06
2023-03-26T08:39:16.123Z,100589.84
2023-03-26T08:45:01.284Z,100604.09
2023-03-26T08:50:21.333Z,100579.31
2023-03-26T08:55:44.673Z,100627.06
2023-03-26T09:01:08.821Z,100621.34
2023-03-26T09:06:40.944Z,100628.47
2023-03-26T09:12:23.770Z,100612.31
2023-03-26T09:17:55.930Z,100589.22
2023-03-26T09:23:17.507Z,100600.09
2023-03-26T09:28:56.107Z,100593.94
2023-03-26T09:34:04.285Z,100559.97
2023-03-26T09:39:10.342Z,100600.00
2023-03-26T09:44:55.147Z,100537.25
2023-03-26T09:49:57.916Z,100585.50
2023-03-26T09:55:25.574Z,100531.16
2023-03-26T10:00:28.804Z,100548.94
2023-03-26T10:06:04.095Z,100584.50
2023-03-26T10:11:11.982Z,100531.97
2023-03-26T10:16:22.154Z,100498.84
2023-03-26T10:21:28.561Z,100550.66
2023-03-26T10:27:08.455Z,100523.56
2023-03-26T10:32:22.169Z,100556.66
2023-03-26T10:37:30.629Z,100524.91
2023-03-26T10:42:47.405Z,100506.66
2023-03-26T10:48:15.088Z,100487.72
2023-03-26T10:53:21.321Z,100486.56
2023-03-26T10:58:23.851Z,100488.69
2023-03-26T11:03:42.827Z,100510.31
2023-03-26T11:08:45.279Z,100478.06
2023-03-26T11:13:51.926Z,100486.34
2023-03-26T11:18:54.106Z,100461.47
2023-03-26T11:24:04.856Z,100464.31
2023-03-26T11:29:32.802Z,100497.53
2023-03-26T11:34:34.661Z,100462.31
2023-03-26T11:39:44.182Z,100481.75
2023-03-26T11:44:46.564Z,100482.56
2023-03-26T11:49:47.036Z,100475.28
2023-03-26T11:54:47.559Z,100420.88
2023-03-26T11:59:57.527Z,100424.78
2023-03-26T12:05:12.748Z,100456.66
2023-03-26T12:10:22.593Z,100385.41
2023-03-26T12:15:21.310Z,100447.31
2023-03-26T12:20:34.060Z,100369.75
2023-03-26T12:25:32.993Z,100423.94
2023-03-26T12:30:35.089Z,100375.28
2023-03-26T12:35:34.307Z,100405.81
2023-03-26T12:40:36.114Z,100368.56
2023-03-26T12:45:40.054Z,100404.25
2023-03-26T12:50:50.849Z,100415.47
2023-03-26T12:55:59.678Z,100334.41
2023-03-26T13:01:05.447Z,100407.28
2023-03-26T13:06:28.520Z,100381.56
2023-03-26T13:11:35.802Z,100392.56
2023-03-26T13:16:44.795Z,100386.97
2023-03-26T13:21:59.157Z,100348.50
2023-03-26T13:27:09.845Z,100364.00
2023-03-26T13:32:15.996Z,100328.03
2023-03-26T13:37:21.638Z,100362.03
2023-03-26T13:42:42.718Z,100363.19
2023-03-26T13:47:46.000Z,100374.50
2023-03-26T13:52:47.483Z,100374.06
2023-03-26T13:57:50.654Z,100355.13
2023-03-26T14:02:56.226Z,100365.28
2023-03-26T14:07:57.723Z,100346.16
2023-03-26T14:13:00.344Z,100363.44
2023-03-26T14:18:06.693Z,100379.56
2023-03-26T14:23:24.112Z,100371.50
2023-03-26T14:28:41.162Z,100339.09
2023-03-26T14:33:59.674Z,100347.03
2023-03-26T14:39:13.147Z,100296.28
2023-03-26T14:44:26.921Z,100363.75
2023-03-26T14:50:19.646Z,100356.88
2023-03-26T14:55:33.452Z,100339.41
2023-03-26T15:01:07.150Z,100365.72
2023-03-26T15:06:48.231Z,100351.84
2023-03-26T15:11:53.296Z,100334.34
2023-03-26T15:17:34.260Z,100338.56
2023-03-26T15:23:14.122Z,100314.75
2023-03-26T15:28:48.983Z,100349.06
2023-03-26T15:34:20.211Z,100359.75
2023-03-26T15:39:37.628Z,100345.09
2023-03-26T15:44:54.154Z,100316.84
2023-03-26T15:49:59.529Z,100314.22
2023-03-26T15:55:00.587Z,100376.34
2023-03-26T16:00:21.905Z,100333.91
2023-03-26T16:05:30.452Z,100378.91
2023-03-26T16:10:37.738Z,100337.34
2023-03-26T16:15:35.995Z,100311.53
2023-03-26T16:20:34.368Z,100382.34
2023-03-26T16:25:34.165Z,100386.56
2023-03-26T16:30:32.919Z,100314.03
2023-03-26T16:35:41.884Z,100412.00
2023-03-26T16:40:59.339Z,100399.16
2023-03-26T16:46:06.259Z,100410.63
2023-03-26T16:51:16.413Z,100399.34
2023-03-26T16:56:17.255Z,100392.13
2023-03-26T17:01:26.692Z,100326.22
2023-03-26T17:06:31.659Z,100425.19
2023-03-26T17:11:41.963Z,100430.00
2023-03-26T17:16:46.077Z,100441.03
2023-03-26T17:21:52.453Z,100445.81
2023-03-26T17:26:57.590Z,100429.00
2023-03-26T17:31:59.359Z,100460.34
2023-03-26T17:36:58.374Z,100459.44
2023-03-26T17:42:10.888Z,100440.69
2023-03-26T17:47:34.550Z,100449.72
2023-03-26T17:52:47.394Z,100454.78
2023-03-26T17:57:47.334Z,100451.47
2023-03-26T18:02:51.292Z,100374.25
2023-03-26T18:08:36.501Z,100469.16
2023-03-26T18:13:49.929Z,100457.16
2023-03-26T18:18:51.604Z,100428.22
2023-03-26T18:23:50.544Z,100460.19
2023-03-26T18:28:52.858Z,100423.44
2023-03-26T18:33:55.186Z,100444.97
2023-03-26T18:39:03.820Z,100453.66
2023-03-26T18:44:07.649Z,100462.59
2023-03-26T18:49:05.823Z,100463.69
2023-03-26T18:54:06.146Z,100424.63
2023-03-26T18:59:06.151Z,100447.16
2023-03-26T19:04:06.703Z,100453.44
2023-03-26T19:09:07.802Z,100424.50
2023-03-26T19:14:17.361Z,100458.72
2023-03-26T19:19:18.905Z,100457.16
2023-03-26T19:24:20.665Z,100438.84
2023-03-26T19:29:22.830Z,100431.22
2023-03-26T19:34:31.042Z,100448.09
2023-03-26T19:39:38.607Z,100452.09
2023-03-26T19:44:39.099Z,100454.00
2023-03-26T19:49:47.384Z,100461.97
2023-03-26T19:54:59.430Z,100406.00
2023-03-26T19:59:58.257Z,100463.88
2023-03-26T20:04:55.237Z,100399.34
2023-03-26T20:09:52.629Z,100357.16
2023-03-26T20:14:49.640Z,100399.34
2023-03-26T20:19:47.534Z,100464.72
2023-03-26T20:24:44.612Z,100441.19
2023-03-26T20:29:41.802Z,100452.38
2023-03-26T20:34:39.367Z,100450.19
2023-03-26T20:39:37.870Z,100447.28
2023-03-26T20:44:35.230Z,100424.34
2023-03-26T20:49:32.411Z,100417.09
2023-03-26T20:54:29.743Z,100430.69
2023-03-26T20:59:28.346Z,100437.25
2023-03-26T21:04:25.840Z,100412.06
2023-03-26T21:09:24.753Z,100356.84
2023-03-26T21:14:25.293Z,100387.78
2023-03-26T21:19:23.699Z,100304.81
2023-03-26T21:24:32.518Z,100395.38
2023-03-26T21:29:30.005Z,100413.81
2023-03-26T21:34:28.594Z,100386.03
2023-03-26T21:39:25.992Z,100345.09
2023-03-26T21:44:23.523Z,100394.09
2023-03-26T21:49:21.067Z,100390.81
2023-03-26T21:54:24.536Z,100380.66
2023-03-26T21:59:33.290Z,100316.19
2023-03-26T22:04:36.277Z,100356.91
2023-03-26T22:09:36.540Z,100356.06
2023-03-26T22:14:33.908Z,100344.88
2023-03-26T22:19:30.822Z,100335.47
2023-03-26T22:24:27.741Z,100307.09
2023-03-26T22:29:25.404Z,100312.38
2023-03-26T22:34:23.064Z,100329.41
2023-03-26T22:39:20.217Z,100342.91
2023-03-26T22:44:20.365Z,100342.53
2023-03-26T22:49:18.288Z,100336.19
2023-03-26T22:54:15.018Z,100342.03
2023-03-26T22:59:12.570Z,100333.81
2023-03-26T23:04:09.597Z,100317.06
2023-03-26T23:09:07.345Z,100302.59
2023-03-26T23:14:04.121Z,100275.00
2023-03-26T23:19:01.042Z,100327.75
2023-03-26T23:24:00.920Z,100232.19
2023-03-26T23:28:58.437Z,100303.38
2023-03-26T23:33:55.758Z,100296.09
2023-03-26T23:38:53.343Z,100267.16
2023-03-26T23:43:54.192Z,100295.88
2023-03-26T23:48:54.152Z,100239.81
2023-03-26T23:53:51.875Z,100295.69
2023-03-26T23:58:48.956Z,100286.06
